Tiempo atmosférico en la estación meteorológica de Fresno de Cantiespino, Segovia (993 m.)



Fecha
DESCASC
Temp. máxima en grados centígrados (hora)
DESCASC
Temp. mínima en grados centígrados (hora)
DESCASC
Temp. media en grados centígrados
DESCASC
Racha de viento máxima en m/sg (hora)
DESCASC
Velocidad máxima media en intervalos de 10 minutos(hora)
DESCASC
Precipitaciones diarias en mm
DESCASC
Precipitaciones de 00:00 a 06:00 en mm
DESCASC
Precipitaciones de 06:00 a 12:00 en mm
DESCASC
Precipitaciones de 12:00 a 18:00 en mm
DESCASC
Precipitaciones de 18:00 a 24:00 en mm
DESCASC

Gráficas

Temp. máximas Temp. mínimas Temp. medias Precipitaciones Rachas de viento máximas Velocidades máximas media en intervalos de 10 minutos

Datos horarios

Fecha y hora oficial Temperatura (ºC) Velocidad del viento (km/h) Dirección del viento Racha (km/h) Dirección de racha Precipitación (mm) Presión (hPa) Tendencia (hPa) Humedad (%)
2019-06-19 23:00:00 19.1 5 Oeste 18 Oeste 0 -- -- 50
2019-06-19 22:00:00 20.6 13 Oeste 24 Noroeste 0 -- -- 46
2019-06-19 21:00:00 22.2 18 Noroeste 30 Noroeste 0 -- -- 43
2019-06-19 20:00:00 24.5 17 Oeste 37 Sudoeste 0 -- -- 36
2019-06-19 19:00:00 24.2 14 Sudoeste 28 Oeste 0 -- -- 35
2019-06-19 18:00:00 25.4 16 Oeste 35 Sudoeste 0 -- -- 33
2019-06-19 17:00:00 23.9 11 Oeste 35 Sudoeste 0 -- -- 36
2019-06-19 16:00:00 24.2 14 Oeste 31 Sudoeste 0 -- -- 42
2019-06-19 15:00:00 23.7 15 Oeste 30 Sudoeste 0 -- -- 42
2019-06-19 14:00:00 22.7 15 Oeste 38 Oeste 0 -- -- 44
2019-06-19 13:00:00 20.8 17 Oeste 28 Oeste 0 -- -- 50
2019-06-19 12:00:00 19.5 13 Sudoeste 30 Oeste 0 -- -- 52
2019-06-19 11:00:00 19.1 18 Sudoeste 29 Oeste 0 -- -- 56
2019-06-19 10:00:00 18.6 17 Sudoeste 27 Oeste 0 -- -- 58
2019-06-19 09:00:00 16.6 14 Sudoeste 22 Sudoeste 0 -- -- 66
2019-06-19 08:00:00 15.5 6 Sudoeste 10 Sudoeste 0 -- -- 73
2019-06-19 07:00:00 14.7 6 Sudoeste 10 Sur 0 -- -- 74
2019-06-19 06:00:00 13.8 5 Sudoeste 12 Sudoeste 0 -- -- 76
2019-06-19 05:00:00 13.6 6 Sudoeste 15 Sudoeste 0 -- -- 73
2019-06-19 04:00:00 13.7 9 Sudoeste 15 Sudoeste 0 -- -- 71
2019-06-19 03:00:00 13.2 9 Sudoeste 13 Sudoeste 0 -- -- 70
2019-06-19 02:00:00 13.8 11 Sudoeste 15 Sudoeste 0 -- -- 62
2019-06-19 01:00:00 14.8 7 Sudoeste 13 Sudoeste 0 -- -- 61
2019-06-19 00:00:00 16.4 7 Sudoeste 12 Sur 0 -- -- 55
2019-06-18 23:00:00 18.6 8 Sudoeste 17 Sudoeste 0 -- -- 49
2019-06-18 22:00:00 20.7 12 Oeste 32 Oeste 0 -- -- 45
2019-06-18 21:00:00 24.3 21 Sudoeste 37 Oeste 0 -- -- 25
2019-06-18 20:00:00 -- -- -- -- -- -- -- -- --
2019-06-18 19:00:00 -- -- -- -- -- -- -- -- --
2019-06-18 18:00:00 -- -- -- -- -- -- -- -- --
2019-06-18 17:00:00 -- -- -- -- -- -- -- -- --
2019-06-18 16:00:00 26.5 30 Sur 55 Sur 0 -- -- 19
2019-06-18 15:00:00 26.4 33 Sur 51 Sudoeste 0 -- -- 17
2019-06-18 14:00:00 25.7 33 Sur 50 Sudoeste 0 -- -- 20
2019-06-18 13:00:00 25.8 28 Sudoeste 47 Sudoeste 0 -- -- 23
2019-06-18 12:00:00 25 24 Sudoeste 42 Sudoeste 0 -- -- 25
2019-06-18 11:00:00 24.4 21 Sur 40 Sur 0 -- -- 25
2019-06-18 10:00:00 23.5 19 Sudoeste 32 Sudoeste 0 -- -- 26
2019-06-18 09:00:00 19.6 3 Sur 10 Sudoeste 0 -- -- 46
2019-06-18 08:00:00 12.7 5 Sur 17 Sudeste 0 -- -- 55
2019-06-18 07:00:00 10.8 4 Sur 13 Sur 0 -- -- 55
2019-06-18 06:00:00 12.5 8 Sudoeste 12 Sudoeste 0 -- -- 50
2019-06-18 05:00:00 15 7 Sur 15 Este 0 -- -- 43
2019-06-18 04:00:00 16 3 Sur 14 Nordeste 0 -- -- 43
2019-06-18 03:00:00 16.2 10 Sur 15 Sur 0 -- -- 45
2019-06-18 02:00:00 15.8 6 Sur 12 Sur 0 -- -- 44
2019-06-18 01:00:00 17.5 5 Sur 10 Sur 0 -- -- 41
2019-06-18 00:00:00 19.5 6 Sur 13 Noroeste 0 -- -- 33
2019-06-17 23:00:00 22.4 9 Oeste 25 Oeste 0 -- -- 25
2019-06-17 22:00:00 22.8 10 Sudoeste 16 Sur 0 -- -- 28
2019-06-17 21:00:00 24.4 10 Sur 30 Sur 0 -- -- 25
2019-06-17 20:00:00 25.9 18 Sur 29 Sudoeste 0 -- -- 21
2019-06-17 19:00:00 26.4 17 Sur 33 Sudoeste 0 -- -- 22
2019-06-17 18:00:00 27.6 19 Sudoeste 37 Sudoeste 0 -- -- 22
2019-06-17 17:00:00 27.3 17 Sudoeste 33 Sur 0 -- -- 22
2019-06-17 16:00:00 27.5 15 Sur 33 Sudoeste 0 -- -- 21
2019-06-17 15:00:00 27.4 17 Sudoeste 35 Sudoeste 0 -- -- 22
2019-06-17 14:00:00 27.3 17 Sudoeste 41 Sudoeste 0 -- -- 22
2019-06-17 13:00:00 26.5 17 Sudoeste 35 Sudoeste 0 -- -- 24
2019-06-17 12:00:00 24.9 16 Oeste 26 Oeste 0 -- -- 25
2019-06-17 11:00:00 23.7 12 Oeste 23 Oeste 0 -- -- 28
2019-06-17 10:00:00 22.2 10 Sudoeste 17 Sudoeste 0 -- -- 31
2019-06-17 09:00:00 18.4 2 Norte 6 Sudoeste 0 -- -- 45
2019-06-17 08:00:00 12.3 6 Sudoeste 12 Sudoeste 0 -- -- 56
2019-06-17 07:00:00 9.3 8 Sudoeste 21 Oeste 0 -- -- 59
2019-06-17 06:00:00 9.1 5 Sudoeste 8 Sur 0 -- -- 54
2019-06-17 05:00:00 11.1 2 Sudoeste 14 Sur 0 -- -- 46
2019-06-17 04:00:00 15 10 Sudoeste 18 Sudoeste 0 -- -- 40
2019-06-17 03:00:00 14.1 9 Sudoeste 16 Sudoeste 0 -- -- 40
2019-06-17 02:00:00 15.3 10 Sudoeste 19 Sur 0 -- -- 37
2019-06-17 01:00:00 15.3 10 Sudoeste 17 Sudoeste 0 -- -- 37
2019-06-17 00:00:00 17.3 9 Sudoeste 26 Oeste 0 -- -- 32
2019-06-16 23:00:00 18 10 Sur 18 Sudoeste 0 -- -- 30
2019-06-16 22:00:00 20.3 13 Sur 19 Sur 0 -- -- 28
2019-06-16 21:00:00 23.5 13 Sudoeste 21 Sur 0 -- -- 26
2019-06-16 20:00:00 26.1 10 Sudoeste 22 Sur 0 -- -- 25
2019-06-16 19:00:00 26.6 8 Sudeste 21 Sudoeste 0 -- -- 22
2019-06-16 18:00:00 27.1 8 Sudoeste 25 Oeste 0 -- -- 23
2019-06-16 17:00:00 26 8 Sur 28 Sudoeste 0 -- -- 24
2019-06-16 16:00:00 25.4 12 Sur 34 Sur 0 -- -- 26
2019-06-16 15:00:00 26.1 13 Sudoeste 36 Sur 0 -- -- 25
2019-06-16 14:00:00 24.9 16 Sudoeste 32 Sudoeste 0 -- -- 27
2019-06-16 13:00:00 24.2 14 Sur 28 Sudoeste 0 -- -- 26
2019-06-16 12:00:00 23 10 Sudoeste 26 Sur 0 -- -- 30
2019-06-16 11:00:00 20.9 5 Nordeste 12 Nordeste 0 -- -- 36
2019-06-16 10:00:00 16.9 4 Nordeste 8 Nordeste 0 -- -- 50
2019-06-16 09:00:00 12.6 0 Calma 5 Norte 0 -- -- 62
2019-06-16 08:00:00 6.8 4 Sur 10 Sur 0 -- -- 79
2019-06-16 07:00:00 3.2 7 Sudoeste 10 Sur 0 -- -- 84
2019-06-16 06:00:00 3.4 7 Sudoeste 11 Sur 0 -- -- 81
2019-06-16 05:00:00 4 6 Sudoeste 10 Sur 0 -- -- 79
2019-06-16 04:00:00 5.2 3 Sudoeste 10 Sur 0 -- -- 74
2019-06-16 03:00:00 6.1 4 Sudoeste 9 Sur 0 -- -- 68
2019-06-16 02:00:00 7.7 4 Sudoeste 15 Nordeste 0 -- -- 64
2019-06-16 01:00:00 9.5 3 Sudoeste 13 Sudoeste 0 -- -- 59
2019-06-16 00:00:00 10.9 9 Sudoeste 12 Sudoeste 0 -- -- 55
2019-06-15 23:00:00 12 9 Sur 10 Sudoeste 0 -- -- 51
2019-06-15 22:00:00 17 0 Calma 13 Noroeste 0 -- -- 39
2019-06-15 21:00:00 21.1 10 Noroeste 18 Noroeste 0 -- -- 28
2019-06-15 20:00:00 22.2 10 Oeste 23 Oeste 0 -- -- 26
2019-06-15 19:00:00 22.5 14 Oeste 23 Oeste 0 -- -- 24
2019-06-15 18:00:00 22.5 12 Sudoeste 38 Oeste 0 -- -- 24
2019-06-15 17:00:00 22.1 14 Sudoeste 32 Oeste 0 -- -- 25
2019-06-15 16:00:00 21.2 18 Oeste 30 Sudoeste 0 -- -- 25
2019-06-15 15:00:00 19.9 14 Oeste 31 Oeste 0 -- -- 30
2019-06-15 14:00:00 18.3 10 Noroeste 26 Oeste 0 -- -- 39
2019-06-15 13:00:00 17 8 Noroeste 28 Oeste 0 -- -- 41
2019-06-15 12:00:00 15.8 15 Oeste 25 Oeste 0 -- -- 45
2019-06-15 11:00:00 14.2 15 Sudoeste 27 Sudoeste 0 -- -- 49
2019-06-15 10:00:00 13 17 Sudoeste 31 Sudoeste 0 -- -- 60
2019-06-15 09:00:00 11.2 16 Sudoeste 27 Sudoeste 0 -- -- 66
2019-06-15 08:00:00 9.6 12 Sudoeste 20 Sudoeste 0 -- -- 69
2019-06-15 07:00:00 8 10 Sudoeste 23 Sudoeste 0 -- -- 73
2019-06-15 06:00:00 9.1 15 Sudoeste 31 Sudoeste 0 -- -- 68
2019-06-15 05:00:00 10.6 18 Sudoeste 31 Sudoeste 0 -- -- 62
2019-06-15 04:00:00 10.9 17 Sudoeste 34 Sudoeste 0 -- -- 60
2019-06-15 03:00:00 11.8 19 Sudoeste 32 Oeste 0 -- -- 57
2019-06-15 02:00:00 11.7 13 Sudoeste 21 Sudoeste 0 -- -- 49
2019-06-15 01:00:00 12.5 11 Sudoeste 21 Sudoeste 0 -- -- 47
2019-06-15 00:00:00 13.5 8 Sudoeste 14 Sudoeste 0 -- -- 45
2019-06-14 23:00:00 14.5 9 Sudoeste 25 Oeste 0 -- -- 42
2019-06-14 22:00:00 16.4 14 Oeste 36 Oeste 0 -- -- 37
2019-06-14 21:00:00 19.3 22 Oeste 37 Oeste 0 -- -- 31
2019-06-14 20:00:00 21.5 22 Oeste 41 Oeste 0 -- -- 27
2019-06-14 19:00:00 23.4 22 Oeste 51 Sudoeste 0 -- -- 24
2019-06-14 18:00:00 24.1 23 Sudoeste 46 Oeste 0 -- -- 23
2019-06-14 17:00:00 24.4 26 Oeste 47 Oeste 0 -- -- 20
2019-06-14 16:00:00 23.6 18 Sudoeste 36 Sudoeste 0 -- -- 23
2019-06-14 15:00:00 23.1 17 Oeste 39 Oeste 0 -- -- 25
2019-06-14 14:00:00 22.9 17 Sudoeste 33 Sudoeste 0 -- -- 26
2019-06-14 13:00:00 21.4 15 Oeste 36 Oeste 0 -- -- 31
2019-06-14 12:00:00 20.7 17 Oeste 35 Oeste 0 -- -- 32
2019-06-14 11:00:00 19.5 20 Oeste 30 Oeste 0 -- -- 33
2019-06-14 10:00:00 18.6 13 Oeste 18 Oeste 0 -- -- 32
2019-06-14 09:00:00 15.2 13 Oeste 17 Oeste 0 -- -- 39
2019-06-14 08:00:00 6.2 7 Sur 9 Sur 0 -- -- 73
2019-06-14 07:00:00 4.9 6 Sudoeste 10 Sudoeste 0 -- -- 70
2019-06-14 06:00:00 5.4 7 Sur 12 Sur 0 -- -- 69
2019-06-14 05:00:00 6.5 4 Oeste 7 Oeste 0 -- -- 61
2019-06-14 04:00:00 7 3 Sur 13 Sur 0 -- -- 60
2019-06-14 03:00:00 8.6 10 Sur 13 Sur 0 -- -- 54
2019-06-14 02:00:00 9.2 10 Sur 14 Sur 0 -- -- 52
2019-06-14 01:00:00 9.9 9 Sudoeste 12 Sudoeste 0 -- -- 51
2019-06-14 00:00:00 11.8 8 Sur 13 Sur 0 -- -- 44
2019-06-13 23:00:00 13.9 9 Sur 15 Sur 0 -- -- 42
2019-06-13 22:00:00 17.1 8 Sur 13 Sudoeste 0 -- -- 36
2019-06-13 21:00:00 21.3 11 Sudoeste 26 Sur 0 -- -- 25
2019-06-13 20:00:00 22.8 17 Sur 37 Sur 0 -- -- 24
2019-06-13 19:00:00 22.8 19 Sur 40 Sur 0 -- -- 25
2019-06-13 18:00:00 23.7 28 Sur 41 Sur 0 -- -- 25
2019-06-13 17:00:00 24.3 19 Sudoeste 44 Sur 0 -- -- 28
2019-06-13 16:00:00 23.6 22 Sur 43 Sur 0 -- -- 28
2019-06-13 15:00:00 22.5 23 Sur 45 Sur 0 -- -- 32
2019-06-13 14:00:00 22.2 22 Sur 45 Sudoeste 0 -- -- 33
2019-06-13 13:00:00 21.6 25 Sur 45 Sur 0 -- -- 32
2019-06-13 12:00:00 20.6 21 Sur 37 Sudoeste 0 -- -- 35
2019-06-13 11:00:00 19.1 21 Sur 36 Sur 0 -- -- 41
2019-06-13 10:00:00 17.4 23 Sur 36 Sudoeste 0 -- -- 46
2019-06-13 09:00:00 13.8 4 Norte 10 Norte 0 -- -- 58
2019-06-13 08:00:00 8.6 3 Este 10 Sur 0 -- -- 76
2019-06-13 07:00:00 4.4 4 Sudoeste 9 Oeste 0 -- -- 76
2019-06-13 06:00:00 4.7 0 Calma 14 Noroeste 0 -- -- 64
2019-06-13 05:00:00 4.3 0 Calma 9 Nordeste 0 -- -- 64
2019-06-13 04:00:00 8.4 4 Sudoeste 14 Sudoeste 0 -- -- 53
2019-06-13 03:00:00 4.4 5 Sur 12 Sudoeste 0 -- -- 66
2019-06-13 02:00:00 5.8 8 Sudoeste 15 Sudoeste 0 -- -- 61
2019-06-13 01:00:00 7.7 9 Sur 14 Sur 0 -- -- 54
2019-06-13 00:00:00 9.6 9 Sur 14 Norte 0 -- -- 51
2019-06-12 23:00:00 14.4 7 Norte 23 Oeste 0 -- -- 33
2019-06-12 22:00:00 14.6 9 Sur 12 Sur 0 -- -- 41
2019-06-12 21:00:00 17.1 3 Sur 13 Sudoeste 0 -- -- 35
2019-06-12 20:00:00 18.9 12 Sur 25 Sudoeste 0 -- -- 32
2019-06-12 19:00:00 19.3 9 Sudoeste 25 Sudeste 0 -- -- 32
2019-06-12 18:00:00 19.6 12 Oeste 26 Sudoeste 0 -- -- 31
2019-06-12 17:00:00 19.1 7 Norte 23 Sur 0 -- -- 33
2019-06-12 16:00:00 18.6 12 Sudoeste 30 Oeste 0 -- -- 29
2019-06-12 15:00:00 18.2 8 Noroeste 29 Oeste 0 -- -- 35
2019-06-12 14:00:00 17.7 18 Oeste 35 Oeste 0 -- -- 33
2019-06-12 13:00:00 16.2 15 Oeste 26 Sur 0 -- -- 39
2019-06-12 12:00:00 13.9 10 Noroeste 23 Oeste 0 -- -- 45
2019-06-12 11:00:00 12.4 5 Noroeste 16 Norte 0 -- -- 52
2019-06-12 10:00:00 10.5 3 Este 10 Norte 0 -- -- 53
2019-06-12 09:00:00 8.5 4 Oeste 9 Oeste 0 -- -- 61
2019-06-12 08:00:00 4.3 3 Sudoeste 11 Sudoeste 0 -- -- 83
2019-06-12 07:00:00 0.9 0 Calma 10 Sur 0 -- -- 88
2019-06-12 06:00:00 0.4 9 Sur 12 Sudoeste 0 -- -- 90
2019-06-12 05:00:00 0.6 8 Sudoeste 10 Sur 0 -- -- 87
2019-06-12 04:00:00 1.1 8 Sudoeste 10 Sur 0 -- -- 86
2019-06-12 03:00:00 1.6 8 Sudoeste 10 Sudoeste 0 -- -- 84
2019-06-12 02:00:00 2.4 8 Sudoeste 9 Sur 0 -- -- 81
2019-06-12 01:00:00 3.8 3 Sudoeste 6 Sur 0 -- -- 74
2019-06-12 00:00:00 5.7 0 Calma 5 Sur 0 -- -- 65
2019-06-11 23:00:00 7.5 2 Sudeste 4 Sudeste 0 -- -- 60
2019-06-11 22:00:00 10.4 3 Nordeste 13 Norte 0 -- -- 51
2019-06-11 21:00:00 13.8 11 Norte 24 Norte 0 -- -- 40
2019-06-11 20:00:00 14.8 12 Norte 32 Norte 0 -- -- 36
2019-06-11 19:00:00 14.6 19 Norte 33 Norte 0 -- -- 34
2019-06-11 18:00:00 14.9 18 Norte 36 Norte 0 -- -- 35
2019-06-11 17:00:00 15.5 22 Norte 46 Norte 0 -- -- 31
2019-06-11 16:00:00 15.1 20 Norte 42 Norte 0 -- -- 38
2019-06-11 15:00:00 14.3 19 Norte 36 Norte 0 -- -- 39
2019-06-11 14:00:00 13 19 Norte 36 Noroeste 0 -- -- 46
2019-06-11 13:00:00 12 22 Norte 31 Norte 0 -- -- 55
2019-06-11 12:00:00 9.6 9 Norte 23 Norte 0 -- -- 70
2019-06-11 11:00:00 9.7 15 Norte 30 Norte 0 -- -- 72
2019-06-11 10:00:00 8.1 19 Norte 28 Norte 0 -- -- 82
2019-06-11 09:00:00 8.2 11 Noroeste 22 Noroeste 0 -- -- 88
2019-06-11 08:00:00 8 13 Noroeste 21 Noroeste 0 -- -- 92
2019-06-11 07:00:00 8 8 Norte 14 Norte 0.2 -- -- 91
2019-06-11 06:00:00 8.9 9 Norte 12 Norte 0 -- -- 82
2019-06-11 05:00:00 9.4 3 Norte 14 Norte 0 -- -- 76
2019-06-11 04:00:00 10.1 8 Noroeste 17 Norte 0 -- -- 71
2019-06-11 03:00:00 11.7 14 Norte 19 Noroeste 0 -- -- 63
2019-06-11 02:00:00 11.3 5 Sur 12 Noroeste 0 -- -- 63
2019-06-11 01:00:00 12.2 4 Noroeste 15 Noroeste 0 -- -- 55
2019-06-11 00:00:00 12 8 Sur 10 Sur 0 -- -- 56
2019-06-10 23:00:00 12.3 4 Sudeste 11 Nordeste 0 -- -- 52
2019-06-10 22:00:00 13.7 8 Nordeste 15 Norte 0 -- -- 49
2019-06-10 21:00:00 16.3 15 Norte 25 Norte 0 -- -- 42
2019-06-10 20:00:00 17.3 20 Norte 30 Norte 0 -- -- 39
2019-06-10 19:00:00 19.6 17 Noroeste 37 Noroeste 0 -- -- 33
2019-06-10 18:00:00 20.2 18 Oeste 37 Oeste 0 -- -- 31
2019-06-10 17:00:00 20.1 18 Oeste 34 Sudoeste 0 -- -- 31
2019-06-10 16:00:00 19.8 18 Oeste 32 Oeste 0 -- -- 32
2019-06-10 15:00:00 18.8 18 Oeste 33 Oeste 0 -- -- 35
2019-06-10 14:00:00 17.8 14 Oeste 32 Oeste 0 -- -- 39
2019-06-10 13:00:00 16.8 10 Oeste 31 Oeste 0 -- -- 42
2019-06-10 12:00:00 15.6 11 Noroeste 26 Oeste 0 -- -- 50
2019-06-10 11:00:00 14 14 Sudoeste 23 Sudoeste 0 -- -- 65
2019-06-10 10:00:00 10.8 15 Sudoeste 22 Oeste 0 -- -- 79
2019-06-10 09:00:00 9.4 15 Oeste 23 Sudoeste 0 -- -- 85
2019-06-10 08:00:00 8.4 12 Sudoeste 22 Sudoeste 0 -- -- 93
2019-06-10 07:00:00 8 15 Sudoeste 22 Sur 0 -- -- 95
2019-06-10 06:00:00 8.1 15 Sudoeste 25 Sudoeste 0 -- -- 94
2019-06-10 05:00:00 7.9 9 Sudoeste 19 Sudoeste 0 -- -- 92
2019-06-10 04:00:00 7.2 7 Sudoeste 10 Sudoeste 0 -- -- 91
2019-06-10 03:00:00 8 5 Sur 10 Sudoeste 0 -- -- 89
2019-06-10 02:00:00 9.5 7 Sudoeste 13 Sudoeste 0 -- -- 85
2019-06-10 01:00:00 10.7 6 Sudoeste 14 Noroeste 0 -- -- 81
2019-06-10 00:00:00 12.8 10 Oeste 19 Noroeste 0 -- -- 74
2019-06-09 23:00:00 15.1 10 Noroeste 18 Noroeste 0 -- -- 61
2019-06-09 22:00:00 18.2 10 Oeste 28 Noroeste 0 -- -- 34
2019-06-09 21:00:00 20.4 19 Oeste 30 Oeste 0 -- -- 31
2019-06-09 20:00:00 21.3 18 Oeste 31 Oeste 0 -- -- 29
2019-06-09 19:00:00 22 18 Oeste 36 Oeste 0 -- -- 28
2019-06-09 18:00:00 23.5 20 Oeste 34 Oeste 0 -- -- 25
2019-06-09 17:00:00 23.8 21 Oeste 33 Noroeste 0 -- -- 23
2019-06-09 16:00:00 23.3 17 Oeste 39 Oeste 0 -- -- 28
2019-06-09 15:00:00 22.6 19 Oeste 41 Oeste 0 -- -- 24
2019-06-09 14:00:00 21.8 13 Oeste 33 Sudoeste 0 -- -- 28
2019-06-09 13:00:00 21 17 Sudoeste 32 Sudoeste 0 -- -- 30
2019-06-09 12:00:00 20.2 16 Sudoeste 36 Oeste 0 -- -- 36
2019-06-09 11:00:00 18.5 15 Oeste 25 Sudoeste 0 -- -- 43
2019-06-09 10:00:00 16.8 15 Sudoeste 24 Sudoeste 0 -- -- 48
2019-06-09 09:00:00 14.1 17 Sudoeste 24 Sudoeste 0 -- -- 54
2019-06-09 08:00:00 9.1 8 Sudoeste 12 Sudoeste 0 -- -- 74
2019-06-09 07:00:00 7.7 6 Sur 9 Sur 0 -- -- 79
2019-06-09 06:00:00 9.4 6 Sur 15 Sur 0 -- -- 73
2019-06-09 05:00:00 12.4 10 Sudoeste 21 Sur 0 -- -- 67
2019-06-09 04:00:00 11.3 9 Sur 18 Sur 0 -- -- 76
2019-06-09 03:00:00 14.2 7 Sur 18 Sur 0 -- -- 66
2019-06-09 02:00:00 15 10 Sudoeste 19 Sur 0 -- -- 64
2019-06-09 01:00:00 11.7 9 Sudoeste 13 Sudoeste 0 -- -- 58
2019-06-09 00:00:00 13.7 8 Sur 14 Sudoeste 0 -- -- 48
2019-06-08 23:00:00 17.9 11 Sudoeste 19 Sudoeste 0 -- -- 34
2019-06-08 22:00:00 17.8 6 Sur 17 Oeste 0 -- -- 41
2019-06-08 21:00:00 21.7 8 Sudoeste 17 Sudoeste 0 -- -- 37
2019-06-08 20:00:00 22.4 5 Sur 22 Sudoeste 0 -- -- 40
2019-06-08 19:00:00 23 13 Sur 32 Sur 0 -- -- 39
2019-06-08 18:00:00 23.5 20 Sur 35 Sur 0 -- -- 33
2019-06-08 17:00:00 22.9 16 Sur 33 Sur 0 -- -- 35
2019-06-08 16:00:00 23.5 13 Sur 33 Sur 0 -- -- 36
2019-06-08 15:00:00 22.8 11 Sur 30 Sudoeste 0 -- -- 35
2019-06-08 14:00:00 22.1 5 Norte 25 Noroeste 0 -- -- 32
2019-06-08 13:00:00 21.2 10 Norte 23 Nordeste 0 -- -- 32
2019-06-08 12:00:00 19.4 8 Norte 24 Nordeste 0 -- -- 37
2019-06-08 11:00:00 17.5 13 Nordeste 19 Nordeste 0 -- -- 41
2019-06-08 10:00:00 14.3 9 Nordeste 14 Nordeste 0 -- -- 52
2019-06-08 09:00:00 9.1 5 Norte 8 Norte 0 -- -- 69
2019-06-08 08:00:00 3.9 3 Nordeste 5 Nordeste 0 -- -- 88
2019-06-08 07:00:00 0.1 0 Calma 5 Sudoeste 0 -- -- 92
2019-06-08 06:00:00 0.6 4 Sudoeste 6 Sudoeste 0 -- -- 90
2019-06-08 05:00:00 1.3 5 Sudoeste 8 Sur 0 -- -- 89
2019-06-08 04:00:00 2.8 3 Sur 8 Sur 0 -- -- 82
2019-06-08 03:00:00 3.5 4 Sur 11 Sur 0 -- -- 82
2019-06-08 02:00:00 3.9 9 Sudoeste 13 Sur 0 -- -- 83
2019-06-08 01:00:00 5.1 10 Sur 13 Sur 0 -- -- 78
2019-06-08 00:00:00 5.6 9 Sur 12 Sur 0 -- -- 77
2019-06-07 23:00:00 7.5 8 Sur 10 Sur 0 -- -- 72
2019-06-07 22:00:00 11.4 3 Oeste 13 Oeste 0 -- -- 55
2019-06-07 21:00:00 15.7 8 Oeste 24 Oeste 0 -- -- 37
2019-06-07 20:00:00 16.8 8 Oeste 29 Oeste 0 -- -- 33
2019-06-07 19:00:00 16.8 15 Oeste 32 Oeste 0 -- -- 35
2019-06-07 18:00:00 16 11 Oeste 28 Oeste 0 -- -- 38
2019-06-07 17:00:00 16.2 14 Sudoeste 36 Oeste 0 -- -- 41
2019-06-07 16:00:00 14.9 10 Sudoeste 28 Sudoeste 0 -- -- 46
2019-06-07 15:00:00 13.9 17 Sudoeste 36 Oeste 0 -- -- 49
2019-06-07 14:00:00 13.2 18 Oeste 40 Oeste 0 -- -- 51
2019-06-07 13:00:00 12.7 21 Oeste 37 Oeste 0 -- -- 57
2019-06-07 12:00:00 11.5 27 Oeste 41 Sudoeste 0 -- -- 60
2019-06-07 11:00:00 10 26 Oeste 45 Oeste 0 -- -- 68
2019-06-07 10:00:00 8.7 21 Oeste 41 Sudoeste 0 -- -- 78
2019-06-07 09:00:00 7.5 22 Sudoeste 45 Oeste 0 -- -- 83
2019-06-07 08:00:00 6.5 25 Sudoeste 38 Sudoeste 0 -- -- 86
2019-06-07 07:00:00 6.2 23 Sudoeste 39 Sudoeste 0 -- -- 90
2019-06-07 06:00:00 6.7 19 Sudoeste 35 Sudoeste 0 -- -- 90
2019-06-07 05:00:00 6.4 18 Sudoeste 34 Sudoeste 0.6 -- -- 92
2019-06-07 04:00:00 6.5 22 Sudoeste 35 Sudoeste 0.8 -- -- 92
2019-06-07 03:00:00 6.8 22 Sudoeste 46 Sudoeste 0.8 -- -- 89
2019-06-07 02:00:00 8.7 22 Oeste 53 Oeste 1.6 -- -- 90
2019-06-07 01:00:00 15.3 24 Sudoeste 50 Sur 0 -- -- 46
2019-06-07 00:00:00 16.2 26 Sudoeste 45 Sur 0 -- -- 39
2019-06-06 23:00:00 16.2 27 Sudoeste 45 Sudoeste 0 -- -- 38
2019-06-06 22:00:00 16.6 25 Sudoeste 50 Sudoeste 0 -- -- 36
2019-06-06 21:00:00 17.5 28 Sur 53 Sudoeste 0 -- -- 35
2019-06-06 20:00:00 19.1 35 Sur 59 Sur 0 -- -- 30
2019-06-06 19:00:00 19.7 34 Sur 58 Sur 0 -- -- 28
2019-06-06 18:00:00 20 32 Sur 63 Sur 0 -- -- 28
2019-06-06 17:00:00 20.3 34 Sur 58 Sur 0 -- -- 26
2019-06-06 16:00:00 20.2 31 Sur 51 Sur 0 -- -- 28
2019-06-06 15:00:00 19.5 31 Sur 47 Sur 0 -- -- 29
2019-06-06 14:00:00 18.4 25 Sur 46 Sur 0 -- -- 30
2019-06-06 13:00:00 17.9 20 Sur 39 Sur 0 -- -- 34
2019-06-06 12:00:00 16.8 19 Sudoeste 35 Sudoeste 0 -- -- 32
2019-06-06 11:00:00 14.8 5 Sudeste 14 Sudoeste 0 -- -- 48
2019-06-06 10:00:00 12.8 2 Noroeste 8 Oeste 0 -- -- 52
2019-06-06 09:00:00 10.5 5 Sudoeste 15 Oeste 0 -- -- 59
2019-06-06 08:00:00 7.2 5 Sudoeste 12 Sur 0 -- -- 74
2019-06-06 07:00:00 3.9 6 Sur 8 Sur 0 -- -- 82
2019-06-06 06:00:00 4.4 6 Sur 11 Sudoeste 0 -- -- 80
2019-06-06 05:00:00 6.8 8 Sudoeste 13 Sudoeste 0 -- -- 70
2019-06-06 04:00:00 8.2 10 Sudoeste 15 Sudoeste 0 -- -- 65
2019-06-06 03:00:00 7.6 8 Sur 18 Sudoeste 0 -- -- 67
2019-06-06 02:00:00 9.3 13 Sudoeste 18 Sudoeste 0 -- -- 57
2019-06-06 01:00:00 9.4 8 Sudoeste 16 Sur 0 -- -- 55
2019-06-06 00:00:00 9.1 8 Sur 14 Oeste 0 -- -- 57
2019-06-05 23:00:00 10.7 6 Sur 14 Oeste 0 -- -- 51
2019-06-05 22:00:00 12.8 9 Oeste 24 Oeste 0 -- -- 39
2019-06-05 21:00:00 14.4 15 Oeste 32 Oeste 0 -- -- 35
2019-06-05 20:00:00 15.3 18 Oeste 40 Oeste 0 -- -- 36
2019-06-05 19:00:00 15.9 17 Oeste 36 Oeste 0 -- -- 34
2019-06-05 18:00:00 17 15 Oeste 37 Oeste 0 -- -- 33
2019-06-05 17:00:00 16.1 18 Noroeste 41 Oeste 0 -- -- 35
2019-06-05 16:00:00 16.3 23 Oeste 39 Noroeste 0 -- -- 36
2019-06-05 15:00:00 15.1 19 Oeste 45 Sudoeste 0 -- -- 45
2019-06-05 14:00:00 14.5 22 Oeste 44 Oeste 0 -- -- 46
2019-06-05 13:00:00 13.7 22 Oeste 40 Oeste 0 -- -- 56
2019-06-05 12:00:00 12.1 24 Oeste 36 Oeste 0 -- -- 66
2019-06-05 11:00:00 9.1 22 Oeste 34 Oeste 0 -- -- 82
2019-06-05 10:00:00 7.8 18 Oeste 39 Oeste 0 -- -- 90
2019-06-05 09:00:00 7.9 22 Oeste 35 Sudoeste 0.2 -- -- 91
2019-06-05 08:00:00 8.1 18 Sudoeste 39 Sudoeste 0.2 -- -- 89
2019-06-05 07:00:00 9 22 Oeste 35 Oeste 0 -- -- 81
2019-06-05 06:00:00 9.3 20 Sudoeste 42 Sudoeste 0 -- -- 82
2019-06-05 05:00:00 10.4 24 Sudoeste 41 Sudoeste 0 -- -- 72
2019-06-05 04:00:00 13.3 20 Oeste 29 Oeste 0 -- -- 58
2019-06-05 03:00:00 13.9 12 Oeste 21 Sudoeste 0 -- -- 60
2019-06-05 02:00:00 14.7 11 Oeste 20 Oeste 0 -- -- 59
2019-06-05 01:00:00 14.7 5 Oeste 20 Oeste 0 -- -- 65
2019-06-05 00:00:00 15.9 13 Oeste 22 Oeste 0 -- -- 61
2019-06-04 23:00:00 16.7 14 Oeste 30 Oeste 0 -- -- 59
2019-06-04 22:00:00 18.1 19 Oeste 30 Oeste 0 -- -- 54
2019-06-04 21:00:00 19.7 20 Noroeste 30 Noroeste 0 -- -- 46
2019-06-04 20:00:00 21.9 15 Oeste 29 Oeste 0 -- -- 39
2019-06-04 19:00:00 23.4 20 Oeste 32 Oeste 0 -- -- 37
2019-06-04 18:00:00 23.8 19 Oeste 34 Oeste 0 -- -- 35
2019-06-04 17:00:00 24.2 15 Sudoeste 23 Oeste 0 -- -- 36
2019-06-04 16:00:00 24.9 13 Sudoeste 37 Oeste 0 -- -- 38
2019-06-04 15:00:00 25.3 12 Oeste 45 Oeste 0 -- -- 38
2019-06-04 14:00:00 24.3 16 Sudoeste 36 Oeste 0 -- -- 41
2019-06-04 13:00:00 22.7 19 Oeste 33 Oeste 0 -- -- 47
2019-06-04 12:00:00 20.9 19 Sudoeste 31 Oeste 0 -- -- 53
2019-06-04 11:00:00 18.4 21 Oeste 31 Oeste 0 -- -- 63
2019-06-04 10:00:00 17.3 15 Sudoeste 26 Oeste 0 -- -- 69
2019-06-04 09:00:00 15.8 15 Sudoeste 26 Sudoeste 0 -- -- 73
2019-06-04 08:00:00 12.7 3 Sudoeste 5 Sur 0 -- -- 80
2019-06-04 07:00:00 11.8 3 Sudoeste 13 Sudoeste 0 -- -- 76
2019-06-04 06:00:00 13.2 10 Sudoeste 16 Sur 0 -- -- 72
2019-06-04 05:00:00 13.4 8 Sur 13 Sudoeste 0 -- -- 63
2019-06-04 04:00:00 15.6 5 Sudoeste 19 Sudoeste 0 -- -- 47
2019-06-04 03:00:00 17.7 10 Sudoeste 23 Sudoeste 0 -- -- 39
2019-06-04 02:00:00 17.1 11 Sudoeste 18 Sudoeste 0 -- -- 37
2019-06-04 01:00:00 17.7 11 Sudoeste 15 Sudoeste 0 -- -- 32
2019-06-04 00:00:00 18.7 8 Sudoeste 15 Sudoeste 0 -- -- 29
2019-06-03 23:00:00 19.3 10 Sudoeste 14 Sur 0 -- -- 27
2019-06-03 22:00:00 22.3 6 Sudoeste 26 Sudoeste 0 -- -- 22
2019-06-03 21:00:00 25.7 16 Sudoeste 36 Oeste 0 -- -- 18
2019-06-03 20:00:00 28.4 23 Oeste 37 Sudoeste 0 -- -- 15
2019-06-03 19:00:00 29.9 23 Sudoeste 44 Sudoeste 0 -- -- 14
2019-06-03 18:00:00 30.5 27 Oeste 41 Oeste 0 -- -- 16
2019-06-03 17:00:00 30.4 17 Oeste 35 Sudoeste 0 -- -- 20
2019-06-03 16:00:00 30.1 22 Sudoeste 44 Oeste 0 -- -- 26
2019-06-03 15:00:00 29.5 23 Oeste 46 Sudoeste 0 -- -- 21
2019-06-03 14:00:00 28.2 25 Oeste 38 Sudoeste 0 -- -- 20
2019-06-03 13:00:00 26.9 16 Sudoeste 29 Oeste 0 -- -- 27
2019-06-03 12:00:00 23.5 8 Oeste 20 Oeste 0 -- -- 34
2019-06-03 11:00:00 22 12 Oeste 22 Oeste 0 -- -- 39
2019-06-03 10:00:00 20.2 12 Sudoeste 19 Sudoeste 0 -- -- 41
2019-06-03 09:00:00 17 5 Sudoeste 15 Oeste 0 -- -- 52
2019-06-03 08:00:00 13.4 3 Sudoeste 9 Sur 0 -- -- 60
2019-06-03 07:00:00 14.5 9 Sudoeste 15 Sudoeste 0 -- -- 52
2019-06-03 06:00:00 15.1 10 Sudoeste 17 Sudoeste 0 -- -- 47
2019-06-03 05:00:00 15.1 8 Sudoeste 13 Sudoeste 0 -- -- 48
2019-06-03 04:00:00 15 9 Sudoeste 16 Sudoeste 0 -- -- 49
2019-06-03 03:00:00 13.6 9 Sudoeste 14 Sur 0 -- -- 54
2019-06-03 02:00:00 13.9 9 Sudoeste 12 Sur 0 -- -- 56
2019-06-03 01:00:00 15.4 10 Sudoeste 13 Sudoeste 0 -- -- 54
2019-06-03 00:00:00 16.9 9 Sur 10 Sur 0 -- -- 51
2019-06-02 23:00:00 20.6 9 Sur 11 Sudoeste 0 -- -- 38
2019-06-02 22:00:00 23.7 7 Sudoeste 17 Oeste 0 -- -- 29
2019-06-02 21:00:00 26 13 Noroeste 22 Noroeste 0 -- -- 24
2019-06-02 20:00:00 27.7 11 Noroeste 24 Noroeste 0 -- -- 23
2019-06-02 19:00:00 29.4 10 Oeste 23 Oeste 0 -- -- 22
2019-06-02 18:00:00 30.1 17 Oeste 32 Sudoeste 0 -- -- 21
2019-06-02 17:00:00 31.4 20 Oeste 33 Oeste 0 -- -- 19
2019-06-02 16:00:00 31.2 20 Oeste 37 Oeste 0 -- -- 20
2019-06-02 15:00:00 30.5 16 Sudoeste 30 Sudoeste 0 -- -- 21
2019-06-02 14:00:00 30.1 14 Sudoeste 35 Oeste 0 -- -- 22
2019-06-02 13:00:00 28.8 10 Sudoeste 26 Sudoeste 0 -- -- 30
2019-06-02 12:00:00 27.4 16 Oeste 26 Sudoeste 0 -- -- 29
2019-06-02 11:00:00 25.7 14 Sudoeste 30 Oeste 0 -- -- 34
2019-06-02 10:00:00 23.3 18 Sudoeste 30 Sudoeste 0 -- -- 35
2019-06-02 09:00:00 20.9 16 Sudoeste 22 Sudoeste 0 -- -- 40
2019-06-02 08:00:00 14.5 4 Nordeste 10 Sudoeste 0 -- -- 56
2019-06-02 07:00:00 13.4 3 Sur 20 Oeste 0 -- -- 52
2019-06-02 06:00:00 10.6 7 Sudoeste 19 Oeste 0 -- -- 63
2019-06-02 05:00:00 12.4 5 Norte 18 Sur 0 -- -- 59
2019-06-02 04:00:00 11.8 9 Sudoeste 14 Sudoeste 0 -- -- 61
2019-06-02 03:00:00 11 6 Sur 11 Sudoeste 0 -- -- 65
2019-06-02 02:00:00 12.5 6 Sur 10 Sur 0 -- -- 57
2019-06-02 01:00:00 14.4 3 Sudeste 18 Oeste 0 -- -- 54
2019-06-02 00:00:00 17.8 16 Oeste 26 Oeste 0 -- -- 40
2019-06-01 23:00:00 17.4 10 Sudoeste 14 Sur 0 -- -- 44
2019-06-01 22:00:00 21.3 4 Sur 8 Sudoeste 0 -- -- 32
2019-06-01 21:00:00 28.4 7 Norte 12 Norte 0 -- -- 24
2019-06-01 20:00:00 30 9 Norte 17 Norte 0 -- -- 18
2019-06-01 19:00:00 30.3 13 Norte 23 Norte 0 -- -- 18
2019-06-01 18:00:00 30.4 14 Norte 25 Norte 0 -- -- 18
2019-06-01 17:00:00 30.9 9 Oeste 26 Noroeste 0 -- -- 19
2019-06-01 16:00:00 30.1 12 Sur 26 Oeste 0 -- -- 22
2019-06-01 15:00:00 29.6 11 Noroeste 22 Nordeste 0 -- -- 21
2019-06-01 14:00:00 28.9 10 Norte 23 Sudoeste 0 -- -- 23
2019-06-01 13:00:00 28.2 8 Norte 18 Noroeste 0 -- -- 22
2019-06-01 12:00:00 27.1 6 Sudoeste 23 Sudoeste 0 -- -- 27
2019-06-01 11:00:00 25.2 5 Norte 9 Nordeste 0 -- -- 32
2019-06-01 10:00:00 20.7 3 Nordeste 6 Norte 0 -- -- 43
2019-06-01 09:00:00 16.3 3 Nordeste 6 Norte 0 -- -- 52
2019-06-01 08:00:00 10.4 0 Calma 8 Sur 0 -- -- 76
2019-06-01 07:00:00 7.2 5 Sudoeste 12 Sur 0 -- -- 76
2019-06-01 06:00:00 7.6 6 Sudoeste 9 Sudoeste 0 -- -- 74
2019-06-01 05:00:00 8.8 3 Sudoeste 8 Sur 0 -- -- 69
2019-06-01 04:00:00 9.2 2 Sur 9 Sur 0 -- -- 66
2019-06-01 03:00:00 9.4 5 Sudoeste 10 Sur 0 -- -- 67
2019-06-01 02:00:00 10.6 4 Sur 8 Sudoeste 0 -- -- 59
2019-06-01 01:00:00 12 0 Calma 11 Sur 0 -- -- 55
2019-06-01 00:00:00 13.8 4 Sur 13 Noroeste 0 -- -- 52
2019-05-31 23:00:00 17.7 10 Oeste 17 Noroeste 0 -- -- 34
2019-05-31 22:00:00 20.4 2 Sur 11 Nordeste 0 -- -- 30
2019-05-31 21:00:00 25.8 8 Nordeste 16 Nordeste 0 -- -- 23
2019-05-31 20:00:00 28.4 9 Nordeste 13 Nordeste 0 -- -- 18
2019-05-31 19:00:00 29.4 9 Noroeste 17 Nordeste 0 -- -- 16
2019-05-31 18:00:00 28.9 13 Nordeste 23 Nordeste 0 -- -- 17
2019-05-31 17:00:00 28.8 6 Nordeste 19 Nordeste 0 -- -- 18
2019-05-31 16:00:00 28.4 7 Norte 21 Noroeste 0 -- -- 18
2019-05-31 15:00:00 27.6 10 Oeste 25 Oeste 0 -- -- 20
2019-05-31 14:00:00 26.9 11 Oeste 26 Oeste 0 -- -- 22
2019-05-31 13:00:00 26.2 12 Oeste 22 Noroeste 0 -- -- 24
2019-05-31 12:00:00 25.1 7 Norte 17 Noroeste 0 -- -- 27
2019-05-31 11:00:00 23.1 5 Norte 12 Nordeste 0 -- -- 31
2019-05-31 10:00:00 20.1 3 Noroeste 8 Nordeste 0 -- -- 39
2019-05-31 09:00:00 15.4 0 Calma 4 Sudoeste 0 -- -- 57
2019-05-31 08:00:00 8.7 0 Calma 10 Sudoeste 0 -- -- 73
2019-05-31 07:00:00 5.2 6 Sur 10 Sudoeste 0 -- -- 78
2019-05-31 06:00:00 5.8 7 Sudoeste 10 Sudoeste 0 -- -- 77
2019-05-31 05:00:00 7.1 5 Sur 10 Sudoeste 0 -- -- 72
2019-05-31 04:00:00 9 5 Sudoeste 9 Oeste 0 -- -- 64
2019-05-31 03:00:00 13.3 3 Sudeste 25 Sudeste 0 -- -- 51
2019-05-31 02:00:00 17 15 Sudeste 23 Sudeste 0 -- -- 45
2019-05-31 01:00:00 17.1 13 Sudeste 21 Sudeste 0 -- -- 44
2019-05-31 00:00:00 15.4 11 Este 22 Este 0 -- -- 42
2019-05-30 23:00:00 16.7 6 Este 13 Este 0 -- -- 37
2019-05-30 22:00:00 20.4 9 Este 20 Norte 0 -- -- 30
2019-05-30 21:00:00 24.8 11 Noroeste 15 Noroeste 0 -- -- 27
2019-05-30 20:00:00 26.9 2 Sudeste 18 Nordeste 0 -- -- 24
2019-05-30 19:00:00 26.5 4 Sudeste 20 Nordeste 0 -- -- 24
2019-05-30 18:00:00 26.6 10 Nordeste 25 Norte 0 -- -- 24
2019-05-30 17:00:00 26.4 12 Nordeste 25 Nordeste 0 -- -- 22
2019-05-30 16:00:00 26 10 Norte 23 Este 0 -- -- 22
2019-05-30 15:00:00 25.4 14 Nordeste 27 Nordeste 0 -- -- 22
2019-05-30 14:00:00 24.2 9 Norte 26 Nordeste 0 -- -- 25
2019-05-30 13:00:00 23 11 Norte 21 Norte 0 -- -- 28
2019-05-30 12:00:00 21 6 Norte 13 Este 0 -- -- 36
2019-05-30 11:00:00 18.7 6 Nordeste 11 Nordeste 0 -- -- 46
2019-05-30 10:00:00 15.8 4 Nordeste 9 Nordeste 0 -- -- 50
2019-05-30 09:00:00 11.3 3 Norte 5 Nordeste 0 -- -- 66
2019-05-30 08:00:00 6.3 5 Sudoeste 8 Sur 0 -- -- 82
2019-05-30 07:00:00 2.7 6 Sudoeste 9 Sur 0 -- -- 89
2019-05-30 06:00:00 2.9 4 Sudoeste 9 Sudoeste 0 -- -- 87
2019-05-30 05:00:00 3.7 5 Sudoeste 10 Sudoeste 0 -- -- 84
2019-05-30 04:00:00 3.6 6 Sudoeste 9 Sudoeste 0 -- -- 85
2019-05-30 03:00:00 4.6 2 Sur 4 Sur 0 -- -- 78
2019-05-30 02:00:00 5.6 2 Oeste 4 Sudoeste 0 -- -- 75
2019-05-30 01:00:00 7.1 0 Calma 5 Noroeste 0 -- -- 70
2019-05-30 00:00:00 9.1 3 Oeste 5 Nordeste 0 -- -- 62
2019-05-29 23:00:00 11.8 0 Calma 16 Norte 0 -- -- 52
2019-05-29 22:00:00 14.5 15 Nordeste 26 Norte 0 -- -- 44
2019-05-29 21:00:00 18.2 15 Norte 29 Noroeste 0 -- -- 40
2019-05-29 20:00:00 20 20 Noroeste 33 Norte 0 -- -- 41
2019-05-29 19:00:00 20.9 22 Noroeste 32 Noroeste 0 -- -- 40
2019-05-29 18:00:00 21.1 19 Norte 33 Norte 0 -- -- 42
2019-05-29 17:00:00 20.9 14 Norte 30 Norte 0 -- -- 42
2019-05-29 16:00:00 20.4 16 Norte 29 Norte 0 -- -- 42
2019-05-29 15:00:00 19.7 17 Norte 28 Noroeste 0 -- -- 43
2019-05-29 14:00:00 18 14 Norte 27 Norte 0 -- -- 49
2019-05-29 13:00:00 16.7 12 Nordeste 24 Nordeste 0 -- -- 49
2019-05-29 12:00:00 15.1 13 Noroeste 26 Norte 0 -- -- 53
2019-05-29 11:00:00 13.5 13 Norte 24 Norte 0 -- -- 56
2019-05-29 10:00:00 11.7 7 Norte 15 Norte 0 -- -- 60
2019-05-29 09:00:00 9.2 5 Oeste 10 Oeste 0 -- -- 68
2019-05-29 08:00:00 4.6 6 Sur 9 Sur 0 -- -- 86
2019-05-29 07:00:00 1.4 8 Sudoeste 11 Sur 0 -- -- 90
2019-05-29 06:00:00 1.5 8 Sudoeste 10 Sudoeste 0 -- -- 90
2019-05-29 05:00:00 2.5 4 Sudoeste 6 Sudoeste 0 -- -- 85
2019-05-29 04:00:00 3.4 0 Calma 6 Norte 0 -- -- 80
2019-05-29 03:00:00 4.4 0 Calma 7 Noroeste 0 -- -- 76
2019-05-29 02:00:00 5.7 3 Nordeste 15 Norte 0 -- -- 76
2019-05-29 01:00:00 6.2 11 Norte 15 Norte 0 -- -- 75
2019-05-29 00:00:00 7.9 5 Nordeste 10 Nordeste 0 -- -- 67
2019-05-28 23:00:00 9 9 Nordeste 19 Nordeste 0 -- -- 65
2019-05-28 22:00:00 11.1 11 Nordeste 25 Nordeste 0 -- -- 59
2019-05-28 21:00:00 14.5 16 Nordeste 26 Norte 0 -- -- 49
2019-05-28 20:00:00 16.2 17 Norte 32 Norte 0 -- -- 44
2019-05-28 19:00:00 17.2 17 Norte 33 Norte 0 -- -- 41
2019-05-28 18:00:00 17.6 17 Norte 39 Norte 0 -- -- 38
2019-05-28 17:00:00 18.2 25 Noroeste 39 Noroeste 0 -- -- 36
2019-05-28 16:00:00 18.8 18 Noroeste 34 Norte 0 -- -- 35
2019-05-28 15:00:00 18.8 19 Noroeste 35 Norte 0 -- -- 34
2019-05-28 14:00:00 18.1 12 Norte 26 Norte 0 -- -- 38
2019-05-28 13:00:00 16.9 13 Noroeste 27 Noroeste 0 -- -- 39
2019-05-28 12:00:00 14.8 10 Norte 25 Norte 0 -- -- 46
2019-05-28 11:00:00 13.6 9 Noroeste 23 Noroeste 0 -- -- 52
2019-05-28 10:00:00 11.3 9 Noroeste 15 Noroeste 0 -- -- 58
2019-05-28 09:00:00 9.3 5 Noroeste 13 Oeste 0 -- -- 72
2019-05-28 08:00:00 5.3 3 Sudoeste 8 Sur 0 -- -- 93
2019-05-28 07:00:00 3.4 6 Sur 8 Sur 0 -- -- 92
2019-05-28 06:00:00 4.9 3 Sudoeste 8 Sur 0 -- -- 89
2019-05-28 05:00:00 6 2 Sur 6 Sur 0 -- -- 88
2019-05-28 04:00:00 6.6 7 Norte 12 Norte 0 -- -- 89
2019-05-28 03:00:00 7.7 7 Norte 8 Norte 0 -- -- 85
2019-05-28 02:00:00 8.7 4 Nordeste 11 Norte 0 -- -- 82
2019-05-28 01:00:00 9.7 5 Norte 9 Norte 0 -- -- 78
2019-05-28 00:00:00 10.9 4 Nordeste 7 Nordeste 0 -- -- 73
2019-05-27 23:00:00 12.8 4 Nordeste 10 Norte 0 -- -- 66
2019-05-27 22:00:00 14.7 8 Nordeste 14 Norte 0 -- -- 61
2019-05-27 21:00:00 18.1 10 Norte 24 Norte 0 -- -- 50
2019-05-27 20:00:00 20.3 17 Norte 30 Norte 0 -- -- 43
2019-05-27 19:00:00 21.6 17 Norte 31 Norte 0 -- -- 40
2019-05-27 18:00:00 21.1 23 Norte 37 Norte 0 -- -- 43
2019-05-27 17:00:00 22.3 21 Norte 35 Norte 0 -- -- 39
2019-05-27 16:00:00 22.7 26 Noroeste 38 Norte 0 -- -- 40
2019-05-27 15:00:00 22 15 Norte 32 Noroeste 0 -- -- 41
2019-05-27 14:00:00 21.3 17 Noroeste 31 Noroeste 0 -- -- 41
2019-05-27 13:00:00 20.6 16 Noroeste 32 Noroeste 0 -- -- 43
2019-05-27 12:00:00 20 12 Norte 24 Norte 0 -- -- 46
2019-05-27 11:00:00 17.6 7 Oeste 25 Oeste 0 -- -- 53
2019-05-27 10:00:00 16.4 11 Oeste 19 Oeste 0 -- -- 57
2019-05-27 09:00:00 13.9 10 Sudoeste 17 Sudoeste 0 -- -- 67
2019-05-27 08:00:00 9.5 9 Sudoeste 15 Sudoeste 0 -- -- 87
2019-05-27 07:00:00 6.1 8 Sudoeste 12 Sudoeste 0 -- -- 92
2019-05-27 06:00:00 5.8 8 Sudoeste 10 Sudoeste 0 -- -- 91
2019-05-27 05:00:00 5.9 4 Sur 6 Sudoeste 0 -- -- 89
2019-05-27 04:00:00 6.6 5 Oeste 13 Sudoeste 0 -- -- 88
2019-05-27 03:00:00 6.7 8 Sur 13 Sudoeste 0 -- -- 89
2019-05-27 02:00:00 7 7 Sur 15 Sudoeste 0 -- -- 87
2019-05-27 01:00:00 8.2 5 Sudoeste 10 Sudoeste 0 -- -- 82
2019-05-27 00:00:00 9.9 6 Sur 11 Sudeste 0 -- -- 77
2019-05-26 23:00:00 12.7 6 Sur 18 Noroeste 0 -- -- 69
2019-05-26 22:00:00 14.7 10 Noroeste 16 Noroeste 0 -- -- 61
2019-05-26 21:00:00 18.2 12 Noroeste 28 Norte 0 -- -- 50
2019-05-26 20:00:00 19.8 21 Norte 31 Noroeste 0 -- -- 47
2019-05-26 19:00:00 21.3 21 Noroeste 32 Noroeste 0 -- -- 43
2019-05-26 18:00:00 21.7 16 Norte 31 Norte 0 -- -- 43
2019-05-26 17:00:00 21.6 19 Norte 39 Noroeste 0 -- -- 44
2019-05-26 16:00:00 21.2 17 Norte 34 Norte 0 -- -- 42
2019-05-26 15:00:00 20.4 18 Norte 28 Norte 0 -- -- 42
2019-05-26 14:00:00 18.9 14 Norte 28 Noroeste 0 -- -- 45
2019-05-26 13:00:00 17.6 13 Noroeste 25 Noroeste 0 -- -- 44
2019-05-26 12:00:00 15.7 12 Noroeste 25 Noroeste 0 -- -- 53
2019-05-26 11:00:00 13.8 9 Norte 21 Noroeste 0 -- -- 60
2019-05-26 10:00:00 11.7 8 Noroeste 17 Oeste 0 -- -- 69
2019-05-26 09:00:00 9.6 4 Oeste 9 Oeste 0 -- -- 72
2019-05-26 08:00:00 5 6 Sudoeste 10 Sudoeste 0 -- -- 92
2019-05-26 07:00:00 2 8 Sudoeste 11 Sudoeste 0 -- -- 94
2019-05-26 06:00:00 1.8 8 Sur 10 Sur 0 -- -- 93
2019-05-26 05:00:00 2.1 8 Sudoeste 10 Sudoeste 0 -- -- 92
2019-05-26 04:00:00 2.7 6 Sudoeste 9 Sur 0 -- -- 90
2019-05-26 03:00:00 3.6 8 Sur 11 Sur 0 -- -- 90
2019-05-26 02:00:00 4.6 7 Sudoeste 9 Sur 0 -- -- 87
2019-05-26 01:00:00 6.3 0 Calma 7 Norte 0 -- -- 81
2019-05-26 00:00:00 7.8 0 Calma 9 Norte 0 -- -- 79
2019-05-25 23:00:00 9.9 0 Calma 16 Noroeste 0 -- -- 71
2019-05-25 22:00:00 12 8 Noroeste 22 Noroeste 0 -- -- 65
2019-05-25 21:00:00 15.5 16 Noroeste 31 Noroeste 0 -- -- 54
2019-05-25 20:00:00 17.4 21 Noroeste 37 Norte 0 -- -- 49
2019-05-25 19:00:00 18.7 24 Noroeste 35 Noroeste 0 -- -- 47
2019-05-25 18:00:00 19.5 15 Norte 28 Norte 0 -- -- 40
2019-05-25 17:00:00 19.6 13 Norte 30 Norte 0 -- -- 40
2019-05-25 16:00:00 18.7 14 Norte 28 Norte 0 -- -- 42
2019-05-25 15:00:00 17.8 14 Nordeste 30 Nordeste 0 -- -- 46
2019-05-25 14:00:00 17.4 19 Norte 33 Norte 0 -- -- 47
2019-05-25 13:00:00 16.5 15 Norte 33 Norte 0 -- -- 48
2019-05-25 12:00:00 15.1 21 Norte 34 Norte 0 -- -- 54
2019-05-25 11:00:00 14.2 19 Norte 36 Norte 0 -- -- 56
2019-05-25 10:00:00 11.7 22 Norte 32 Norte 0 -- -- 63
2019-05-25 09:00:00 10.9 13 Norte 22 Norte 0 -- -- 73
2019-05-25 08:00:00 7.8 3 Noroeste 8 Norte 0 -- -- 90
2019-05-25 07:00:00 5.7 2 Sudoeste 4 Sudoeste 0 -- -- 92
2019-05-25 06:00:00 5.8 0 Calma 8 Sur 0 -- -- 95
2019-05-25 05:00:00 3.8 7 Sur 8 Sur 0 -- -- 94
2019-05-25 04:00:00 4.1 5 Sur 8 Sudoeste 0 -- -- 93
2019-05-25 03:00:00 3.9 5 Sudoeste 8 Sudoeste 0 -- -- 92
2019-05-25 02:00:00 4.4 4 Sudoeste 6 Sudoeste 0 -- -- 89
2019-05-25 01:00:00 5.9 0 Calma 4 Sudoeste 0 -- -- 84
2019-05-25 00:00:00 7.5 0 Calma 12 Nordeste 0 -- -- 83
2019-05-24 23:00:00 8.6 11 Norte 24 Norte 0 -- -- 79
2019-05-24 22:00:00 10 17 Norte 29 Norte 0 -- -- 72
2019-05-24 21:00:00 12.1 23 Norte 39 Norte 0 -- -- 61
2019-05-24 20:00:00 14.1 22 Norte 38 Norte 0 -- -- 50
2019-05-24 19:00:00 15.3 27 Norte 43 Norte 0 -- -- 50
2019-05-24 18:00:00 17.1 26 Norte 43 Norte 0 -- -- 45
2019-05-24 17:00:00 18.2 22 Norte 41 Norte 0 -- -- 42
2019-05-24 16:00:00 18.7 22 Norte 38 Noroeste 0 -- -- 39
2019-05-24 15:00:00 18.4 20 Norte 35 Norte 0 -- -- 40
2019-05-24 14:00:00 17.7 18 Norte 32 Norte 0 -- -- 45
2019-05-24 13:00:00 16.2 17 Norte 26 Norte 0 -- -- 53
2019-05-24 12:00:00 14 11 Norte 18 Norte 0 -- -- 76
2019-05-24 11:00:00 11.8 6 Nordeste 14 Norte 0 -- -- 86
2019-05-24 10:00:00 11.5 2 Noroeste 7 Sudoeste 0.4 -- -- 88
2019-05-24 09:00:00 10.9 4 Sur 14 Sudoeste 0 -- -- 86
2019-05-24 08:00:00 10.6 10 Sudoeste 18 Sudoeste 0 -- -- 88
2019-05-24 07:00:00 10.7 11 Oeste 17 Sudoeste 0 -- -- 88
2019-05-24 06:00:00 11.3 12 Sudoeste 19 Sur 0 -- -- 85
2019-05-24 05:00:00 11.3 9 Sudoeste 14 Sudoeste 0 -- -- 87
2019-05-24 04:00:00 11.5 9 Oeste 14 Oeste 0 -- -- 89
2019-05-24 03:00:00 11.5 5 Sudoeste 14 Oeste 0 -- -- 87
2019-05-24 02:00:00 12.3 8 Oeste 11 Sudoeste 0 -- -- 87
2019-05-24 01:00:00 13.3 3 Norte 10 Noroeste 0 -- -- 81
2019-05-24 00:00:00 15.4 6 Este 21 Este 0 -- -- 71
2019-05-23 23:00:00 17.1 10 Nordeste 19 Este 0 -- -- 65
2019-05-23 22:00:00 18.6 3 Norte 17 Norte 0 -- -- 56
2019-05-23 21:00:00 20 12 Norte 31 Norte 0 -- -- 47
2019-05-23 20:00:00 23.9 22 Oeste 31 Oeste 0 -- -- 33
2019-05-23 19:00:00 22.3 6 Sudeste 12 Sur 0 -- -- 41
2019-05-23 18:00:00 22.5 10 Sudoeste 24 Sudoeste 0 -- -- 41
2019-05-23 17:00:00 22.8 16 Sur 28 Sur 0 -- -- 41
2019-05-23 16:00:00 23.6 13 Oeste 32 Oeste 0 -- -- 36
2019-05-23 15:00:00 24.2 16 Sudoeste 34 Oeste 0 -- -- 34
2019-05-23 14:00:00 22.6 17 Oeste 32 Oeste 0 -- -- 39
2019-05-23 13:00:00 22.5 12 Oeste 26 Oeste 0 -- -- 42
2019-05-23 12:00:00 20.9 14 Oeste 22 Oeste 0 -- -- 47
2019-05-23 11:00:00 18.5 14 Sudoeste 26 Sudoeste 0 -- -- 57
2019-05-23 10:00:00 17 15 Sudoeste 27 Sudoeste 0 -- -- 61
2019-05-23 09:00:00 14.9 10 Sudoeste 15 Sudoeste 0 -- -- 60
2019-05-23 08:00:00 10.4 5 Sudoeste 12 Sudoeste 0 -- -- 79
2019-05-23 07:00:00 9.1 8 Sudoeste 10 Sudoeste 0 -- -- 75
2019-05-23 06:00:00 8.5 4 Sur 10 Sudoeste 0 -- -- 80
2019-05-23 05:00:00 6.9 3 Sudoeste 8 Sudoeste 0 -- -- 83
2019-05-23 04:00:00 7.6 4 Sudoeste 9 Sudoeste 0 -- -- 79
2019-05-23 03:00:00 7.2 3 Sur 8 Sudoeste 0 -- -- 79
2019-05-23 02:00:00 8.7 0 Calma 4 Sur 0 -- -- 67
2019-05-23 01:00:00 11 6 Sudoeste 9 Sudoeste 0 -- -- 62
2019-05-23 00:00:00 11 5 Sudoeste 8 Sudoeste 0 -- -- 61
2019-05-22 23:00:00 12.8 7 Sudoeste 9 Sur 0 -- -- 55
2019-05-22 22:00:00 16.2 0 Calma 8 Norte 0 -- -- 50
2019-05-22 21:00:00 21.4 8 Norte 14 Norte 0 -- -- 35
2019-05-22 20:00:00 21.8 8 Norte 18 Oeste 0 -- -- 35
2019-05-22 19:00:00 23.3 10 Oeste 25 Oeste 0 -- -- 30
2019-05-22 18:00:00 24.2 9 Oeste 24 Oeste 0 -- -- 26
2019-05-22 17:00:00 24.4 14 Oeste 25 Oeste 0 -- -- 28
2019-05-22 16:00:00 23.6 6 Norte 24 Noroeste 0 -- -- 30
2019-05-22 15:00:00 23.3 12 Norte 28 Noroeste 0 -- -- 30
2019-05-22 14:00:00 22 7 Norte 22 Nordeste 0 -- -- 35
2019-05-22 13:00:00 21.1 8 Norte 20 Noroeste 0 -- -- 35
2019-05-22 12:00:00 20.4 7 Norte 17 Nordeste 0 -- -- 38
2019-05-22 11:00:00 18.6 4 Norte 9 Nordeste 0 -- -- 47
2019-05-22 10:00:00 14.9 4 Nordeste 9 Nordeste 0 -- -- 56
2019-05-22 09:00:00 11.5 4 Norte 8 Nordeste 0 -- -- 70
2019-05-22 08:00:00 5.7 4 Sur 7 Sudoeste 0 -- -- 87
2019-05-22 07:00:00 2.9 4 Sudoeste 9 Sur 0 -- -- 88
2019-05-22 06:00:00 3.5 5 Sur 9 Sudoeste 0 -- -- 88
2019-05-22 05:00:00 4 6 Sur 9 Sudoeste 0 -- -- 87
2019-05-22 04:00:00 5.2 6 Sur 8 Sudoeste 0 -- -- 82
2019-05-22 03:00:00 7.9 4 Sudoeste 7 Nordeste 0 -- -- 72
2019-05-22 02:00:00 10.5 6 Sur 25 Este 0 -- -- 63
2019-05-22 01:00:00 11.7 14 Sudeste 22 Sudeste 0 -- -- 59
2019-05-22 00:00:00 12.4 11 Este 21 Este 0 -- -- 58
2019-05-21 23:00:00 12.7 9 Nordeste 14 Nordeste 0 -- -- 59
2019-05-21 22:00:00 14.3 6 Norte 16 Norte 0 -- -- 52
2019-05-21 21:00:00 17.2 5 Norte 16 Norte 0 -- -- 44
2019-05-21 20:00:00 20.9 4 Noroeste 17 Noroeste 0 -- -- 33
2019-05-21 19:00:00 21.3 10 Noroeste 29 Noroeste 0 -- -- 32
2019-05-21 18:00:00 20.4 6 Noroeste 15 Oeste 0 -- -- 35
2019-05-21 17:00:00 19.5 4 Nordeste 13 Noroeste 0 -- -- 38
2019-05-21 16:00:00 20.7 6 Nordeste 20 Este 0 -- -- 34
2019-05-21 15:00:00 19.5 8 Noroeste 17 Norte 0 -- -- 38
2019-05-21 14:00:00 18.3 9 Oeste 19 Norte 0 -- -- 42
2019-05-21 13:00:00 18.1 4 Sudeste 15 Este 0 -- -- 40
2019-05-21 12:00:00 17 4 Norte 14 Norte 0 -- -- 44
2019-05-21 11:00:00 15.8 4 Noroeste 15 Sudoeste 0 -- -- 48
2019-05-21 10:00:00 14.2 5 Norte 9 Norte 0 -- -- 54
2019-05-21 09:00:00 11.1 3 Nordeste 6 Este 0 -- -- 66
2019-05-21 08:00:00 5.5 0 Calma 8 Sudoeste 0 -- -- 87
2019-05-21 07:00:00 2 6 Sudoeste 9 Sudoeste 0 -- -- 89
2019-05-21 06:00:00 2.8 5 Sudoeste 7 Sudoeste 0 -- -- 84
2019-05-21 05:00:00 3.6 5 Sudoeste 11 Sur 0 -- -- 82
2019-05-21 04:00:00 3 8 Sudoeste 9 Sudoeste 0 -- -- 83
2019-05-21 03:00:00 4 6 Sudoeste 8 Sudoeste 0 -- -- 79
2019-05-21 02:00:00 5.5 5 Sur 9 Sudoeste 0 -- -- 75
2019-05-21 01:00:00 7 4 Sudoeste 8 Sudoeste 0 -- -- 72
2019-05-21 00:00:00 9.3 5 Sur 9 Sur 0 -- -- 62